Milner, Georgia
Current Conditions -  °F | °C
As of 6:15 PM on Monday 22 Dec 2014 (Local Time) from KOPN Reporting Station
Thunderstorm Thunderstorm  
Wind Chill: 45°   Ceiling: 400
Heat Index: 48°   Visibility: 7mi
Dew Point: 46°   Wind: 7mph
Humidity: 93%   Direction: 80°E
Pressure: 29.92"   Gusts: NA
Location:  33.12°N, 84.2°W
Report Text: KOPN 222315Z AUTO 08006KT 7SM TSRA OVC004 09/08 A2992 RMK AO2 LTG DSNT N NE AND S
Loading
Personal Weather Stations






























Interactive Weather Map New forecast layout! Learn more

10-Day Weather Forecast

Advertisements
Track Severe Weather on mobile